»·PEaware :: N123SX CYYT-CYHZ

N123SX :: CYYT-CYHZ

FLIGHT INFORMATION

Flight Status: Arrived
Operator: Privately registered:
United States
More flights under this callsign
Pilot: Shawn G. (7208)
Aircraft: BOMBARDIER BD-100 CHALLENGER 300
(CL30)
More flights by this aircraft type
Origin: CYYT St John's Intl
Canada
Destination: CYHZ Halifax Intl
Canada
More flights between these airports :: More routes between these airports
Route: TEXED SILRO CAYLY CABOT2
File this flight plan on PilotEdge
Remarks:
Altitude:
(Current/Filed)
40,000ft
Speed:
(Current/Filed)
444kts
Departed: 23-Feb-18 06:43 PM
Arrived: 23-Feb-18 08:23 PM
Distance/Time
Traveled:
476nm/1:40
Distance/Time
To Go:
Arrived

Flight Plot

Page will automatically refresh every two minutes.

Flight plan parsing failed; only flown route is shown


Map Options




Map Legend


Flown Route
Filed Route
Departure Airport
Arrival Airport
Navaid (VOR, NDB)
Fix

Horizontal Profiles

Position Reports

Time Latitude Longitude Heading Altitude Ground
Speed
23-Feb-18 18:34 47.622665 -52.737873 265 466ft 0kts
23-Feb-18 18:35 47.622665 -52.737873 265 466ft 0kts
23-Feb-18 18:36 47.622665 -52.737873 265 466ft 0kts
23-Feb-18 18:37 47.622665 -52.737873 265 466ft 0kts
23-Feb-18 18:38 47.622665 -52.737873 265 466ft 0kts
23-Feb-18 18:39 47.622665 -52.737873 265 466ft 0kts
23-Feb-18 18:40 47.622665 -52.737873 265 466ft 0kts
23-Feb-18 18:41 47.622665 -52.737873 265 466ft 0kts
23-Feb-18 18:42 47.622665 -52.737873 265 466ft 0kts
23-Feb-18 18:43 47.622665 -52.737873 265 466ft 0kts
23-Feb-18 18:44 47.622665 -52.737873 265 466ft 0kts
23-Feb-18 18:45 47.622665 -52.737873 265 466ft 0kts
23-Feb-18 18:46 47.622665 -52.737873 265 466ft 0kts
23-Feb-18 18:47 47.622665 -52.737873 265 466ft 0kts
23-Feb-18 18:48 47.623238 -52.739390 319 465ft 3kts
23-Feb-18 18:49 47.624853 -52.741541 269 465ft 8kts
23-Feb-18 18:50 47.621973 -52.781073 267 1695ft 185kts
23-Feb-18 18:51 47.616728 -52.869727 270 6500ft 236kts
23-Feb-18 18:52 47.612649 -52.968260 272 11014ft 266kts
23-Feb-18 18:53 47.608857 -53.092671 272 14559ft 313kts
23-Feb-18 18:54 47.604555 -53.222584 273 18349ft 323kts
23-Feb-18 18:55 47.600088 -53.356987 274 21491ft 333kts
23-Feb-18 18:56 47.595475 -53.495075 275 24088ft 342kts
23-Feb-18 18:57 47.590683 -53.637578 276 26281ft 351kts
23-Feb-18 18:58 47.585804 -53.781606 276 28149ft 359kts
23-Feb-18 18:59 47.580708 -53.931085 276 29779ft 367kts
23-Feb-18 19:00 47.558802 -54.080312 268 32662ft 351kts
23-Feb-18 19:01 47.537524 -54.215121 276 34607ft 329kts
23-Feb-18 19:02 47.524988 -54.348440 275 36123ft 327kts
23-Feb-18 19:03 47.511374 -54.481847 275 37393ft 328kts
23-Feb-18 19:04 47.497387 -54.614529 275 38567ft 328kts
23-Feb-18 19:05 47.483263 -54.746119 274 39647ft 329kts
23-Feb-18 19:06 47.468627 -54.881275 274 40192ft 344kts
23-Feb-18 19:07 47.452818 -55.025080 273 40188ft 365kts
23-Feb-18 19:08 47.436530 -55.170384 274 40180ft 350kts
23-Feb-18 19:09 47.420799 -55.310119 274 40174ft 347kts
23-Feb-18 19:10 47.404742 -55.451037 273 40177ft 349kts
23-Feb-18 19:11 47.388521 -55.591672 274 40173ft 349kts
23-Feb-18 19:12 47.372247 -55.731340 273 40192ft 350kts
23-Feb-18 19:13 47.355557 -55.872808 273 40190ft 350kts
23-Feb-18 19:14 47.338788 -56.013535 273 40208ft 349kts
23-Feb-18 19:15 47.321849 -56.154075 273 40235ft 350kts
23-Feb-18 19:16 47.304696 -56.294935 273 40243ft 349kts
23-Feb-18 19:17 47.287402 -56.435502 273 40253ft 349kts
23-Feb-18 19:18 47.269922 -56.575982 273 40249ft 349kts
23-Feb-18 19:19 47.252433 -56.715039 273 40265ft 352kts
23-Feb-18 19:20 47.234503 -56.856200 273 40266ft 351kts
23-Feb-18 19:21 47.216530 -56.996268 272 40276ft 346kts
23-Feb-18 19:22 47.199177 -57.130196 270 40235ft 326kts
23-Feb-18 19:23 47.181980 -57.261738 271 40239ft 331kts
23-Feb-18 19:24 47.164459 -57.394446 270 40237ft 330kts
23-Feb-18 19:25 47.146872 -57.526309 270 40231ft 330kts
23-Feb-18 19:26 47.129248 -57.657335 270 40234ft 331kts
23-Feb-18 19:27 47.111286 -57.789605 270 40247ft 332kts
23-Feb-18 19:28 47.093141 -57.922037 270 40245ft 331kts
23-Feb-18 19:29 47.074852 -58.054251 270 40245ft 331kts
23-Feb-18 19:30 47.056439 -58.186281 270 40240ft 331kts
23-Feb-18 19:31 47.037831 -58.318398 270 40236ft 331kts
23-Feb-18 19:32 47.019139 -58.450089 270 40239ft 331kts
23-Feb-18 19:33 46.997854 -58.581883 261 40247ft 349kts
23-Feb-18 19:34 46.955270 -58.708122 258 40298ft 356kts
23-Feb-18 19:35 46.910022 -58.837418 258 40325ft 357kts
23-Feb-18 19:36 46.864935 -58.964483 257 40323ft 352kts
23-Feb-18 19:37 46.820072 -59.090016 257 40321ft 349kts
23-Feb-18 19:38 46.775025 -59.215373 257 40320ft 350kts
23-Feb-18 19:39 46.729897 -59.340334 257 40317ft 350kts
23-Feb-18 19:40 46.684473 -59.465530 257 40315ft 350kts
23-Feb-18 19:41 46.638993 -59.590294 257 40312ft 350kts
23-Feb-18 19:42 46.593801 -59.713702 256 40335ft 352kts
23-Feb-18 19:43 46.547871 -59.838526 256 40332ft 351kts
23-Feb-18 19:44 46.501866 -59.962992 256 40330ft 351kts
23-Feb-18 19:45 46.455548 -60.087723 256 40328ft 351kts
23-Feb-18 19:46 46.409281 -60.211742 256 40325ft 351kts
23-Feb-18 19:47 46.362812 -60.335735 256 40323ft 351kts
23-Feb-18 19:48 46.316272 -60.459349 256 40321ft 351kts
23-Feb-18 19:49 46.269752 -60.582224 257 40312ft 341kts
23-Feb-18 19:50 46.226381 -60.696179 257 40336ft 314kts
23-Feb-18 19:51 46.184433 -60.806399 257 40341ft 316kts
23-Feb-18 19:52 46.142027 -60.917178 257 40337ft 316kts
23-Feb-18 19:53 46.099481 -61.027854 257 40335ft 314kts
23-Feb-18 19:54 46.057380 -61.136909 256 40331ft 310kts
23-Feb-18 19:55 46.015810 -61.244152 256 40329ft 307kts
23-Feb-18 19:56 45.973966 -61.351681 256 40327ft 308kts
23-Feb-18 19:57 45.932132 -61.458755 256 40324ft 308kts
23-Feb-18 19:58 45.890331 -61.565332 256 40309ft 308kts
23-Feb-18 19:59 45.849004 -61.670273 255 40332ft 309kts
23-Feb-18 20:00 45.806534 -61.777748 255 40331ft 310kts
23-Feb-18 20:01 45.764198 -61.884450 255 40329ft 309kts
23-Feb-18 20:02 45.721832 -61.990886 255 39732ft 327kts
23-Feb-18 20:03 45.676261 -62.116085 251 36607ft 355kts
23-Feb-18 20:04 45.626087 -62.231689 249 33174ft 355kts
23-Feb-18 20:05 45.559879 -62.341014 236 27834ft 384kts
23-Feb-18 20:06 45.449053 -62.331950 147 24579ft 469kts
23-Feb-18 20:07 45.428063 -62.159114 54 21801ft 458kts
23-Feb-18 20:08 45.517355 -62.108421 316 18544ft 310kts
23-Feb-18 20:09 45.513412 -62.197746 225 15013ft 285kts
23-Feb-18 20:10 45.451949 -62.264221 223 11575ft 276kts
23-Feb-18 20:11 45.398395 -62.336091 234 10026ft 241kts
23-Feb-18 20:12 45.365913 -62.405054 241 10021ft 182kts
23-Feb-18 20:13 45.339726 -62.474019 244 10150ft 251kts
23-Feb-18 20:14 45.310214 -62.561391 246 10590ft 238kts
23-Feb-18 20:15 45.282651 -62.648147 247 11025ft 241kts
23-Feb-18 20:16 45.255762 -62.734945 246 10795ft 230kts
23-Feb-18 20:17 45.229705 -62.819784 247 10802ft 238kts
23-Feb-18 20:18 45.203951 -62.903884 246 9863ft 233kts
23-Feb-18 20:19 45.174874 -62.985924 241 8140ft 233kts
23-Feb-18 20:20 45.144823 -63.067445 240 6146ft 235kts
23-Feb-18 20:21 45.114608 -63.148976 239 3336ft 240kts
23-Feb-18 20:22 45.087852 -63.223451 240 2847ft 190kts
23-Feb-18 20:23 45.062001 -63.297749 240 2861ft 214kts
23-Feb-18 20:24 45.038455 -63.355620 213 2832ft 179kts
23-Feb-18 20:25 44.993802 -63.400640 213 2685ft 151kts
23-Feb-18 20:26 44.960416 -63.433798 212 2033ft 135kts
23-Feb-18 20:27 44.937783 -63.456415 213 1455ft 114kts
23-Feb-18 20:28 44.907934 -63.485683 210 988ft 115kts
23-Feb-18 20:29 44.882683 -63.510449 212 490ft 99kts
23-Feb-18 20:30 44.875072 -63.521308 235 484ft 10kts
23-Feb-18 20:31 44.875259 -63.523413 234 484ft 0kts
23-Feb-18 20:32 44.875259 -63.523413 234 484ft 0kts
23-Feb-18 20:33 44.875259 -63.523413 234 484ft 0kts
23-Feb-18 20:34 44.875259 -63.523413 234 484ft 0kts
23-Feb-18 20:35 44.875259 -63.523413 234 484ft 0kts
23-Feb-18 20:36 44.875259 -63.523413 234 484ft 0kts
23-Feb-18 20:37 44.875259 -63.523413 234 484ft 0kts

Navigation Log

Ident Type
Flight plan parsing failed, navigation log unavailable